Time;durP1;ratioP1;P1;durP2;ratioP2;P2;SDS_P1;SDS_P2;PMS_P1;PMS_P2;Temp;Humidity;BMP_temperature;BMP_pressure;BME280_temperature;BME280_humidity;BME280_pressure;Samples;Min_cycle;Max_cycle;Signal;HPM_P1;HPM_P2
2022/01/07 00:01:15;;;;;;;26.20;24.13;;;;;;;;;;5015257;28;20198;-88
2022/01/07 00:03:43;;;;;;;26.73;24.60;;;;;;;;;;5015507;28;20280;-88
2022/01/07 00:06:10;;;;;;;28.30;25.23;;;;;;;;;;5015355;28;20213;-89
2022/01/07 00:08:38;;;;;;;25.92;23.73;;;;;;;;;;5015441;28;20193;-88
2022/01/07 00:11:05;;;;;;;27.88;25.50;;;;;;;;;;5015292;28;20202;-88
2022/01/07 00:13:34;;;;;;;25.77;23.27;;;;;;;;;;5015296;28;20182;-88
2022/01/07 00:16:01;;;;;;;28.60;24.30;;;;;;;;;;5014792;28;20202;-89
2022/01/07 00:18:29;;;;;;;25.60;23.52;;;;;;;;;;5015005;28;20648;-88
2022/01/07 00:20:56;;;;;;;27.63;25.13;;;;;;;;;;5014614;28;20722;-87
2022/01/07 00:23:33;;;;;;;27.00;24.27;;;;;;;;;;5014720;28;20194;-88
2022/01/07 00:26:00;;;;;;;27.42;24.08;;;;;;;;;;5014494;28;20234;-88
2022/01/07 00:28:27;;;;;;;25.90;23.60;;;;;;;;;;5014748;28;20233;-88
2022/01/07 00:30:56;;;;;;;28.15;25.55;;;;;;;;;;5014903;28;20212;-88
2022/01/07 00:33:24;;;;;;;26.33;24.33;;;;;;;;;;5015037;28;20194;-88
2022/01/07 00:35:52;;;;;;;28.75;25.90;;;;;;;;;;5014990;28;20191;-88
2022/01/07 00:38:19;;;;;;;25.92;23.80;;;;;;;;;;4997868;28;20288;-88
2022/01/07 00:40:47;;;;;;;26.88;24.48;;;;;;;;;;5014789;28;20193;-88
2022/01/07 00:43:15;;;;;;;26.33;24.20;;;;;;;;;;5014636;28;20209;-89
2022/01/07 00:45:43;;;;;;;26.58;23.88;;;;;;;;;;5014491;28;20221;-88
2022/01/07 00:48:12;;;;;;;25.60;23.33;;;;;;;;;;5014792;28;20555;-90
2022/01/07 00:50:39;;;;;;;26.02;23.63;;;;;;;;;;5014605;28;20205;-88
2022/01/07 00:53:07;;;;;;;32.63;24.27;;;;;;;;;;5014574;28;20615;-89
2022/01/07 00:55:36;;;;;;;26.10;23.60;;;;;;;;;;5014422;28;20609;-88
2022/01/07 00:58:04;;;;;;;25.75;23.42;;;;;;;;;;5014355;28;20210;-88
2022/01/07 01:00:31;;;;;;;25.05;22.60;;;;;;;;;;5014440;28;20208;-88
2022/01/07 01:03:00;;;;;;;25.85;23.75;;;;;;;;;;5014576;28;20202;-88
2022/01/07 01:05:29;;;;;;;24.83;22.50;;;;;;;;;;5013957;28;20727;-88
2022/01/07 01:07:56;;;;;;;24.15;21.88;;;;;;;;;;5014220;28;20206;-88
2022/01/07 01:10:25;;;;;;;25.05;23.08;;;;;;;;;;5014350;28;20678;-88
2022/01/07 01:12:54;;;;;;;24.70;22.92;;;;;;;;;;5014269;28;20205;-88
2022/01/07 01:15:23;;;;;;;23.92;22.17;;;;;;;;;;5014477;28;20197;-88
2022/01/07 01:17:51;;;;;;;26.45;23.98;;;;;;;;;;5014272;28;20211;-89
2022/01/07 01:20:18;;;;;;;25.77;23.67;;;;;;;;;;5014313;28;20229;-88
2022/01/07 01:22:47;;;;;;;28.00;23.33;;;;;;;;;;5014384;28;20208;-89
2022/01/07 01:25:15;;;;;;;24.48;22.60;;;;;;;;;;5013973;28;20240;-88
2022/01/07 01:27:42;;;;;;;24.70;22.65;;;;;;;;;;5018240;28;20198;-88
2022/01/07 01:30:11;;;;;;;25.27;23.20;;;;;;;;;;5017820;28;20233;-89
2022/01/07 01:32:39;;;;;;;25.75;23.75;;;;;;;;;;5018128;28;20213;-88
2022/01/07 01:35:07;;;;;;;25.85;23.52;;;;;;;;;;5018294;28;20538;-88
2022/01/07 01:37:35;;;;;;;23.65;21.92;;;;;;;;;;5017798;28;20576;-89
2022/01/07 01:40:04;;;;;;;24.77;22.55;;;;;;;;;;5017671;28;20191;-88
2022/01/07 01:42:32;;;;;;;24.83;22.83;;;;;;;;;;5000541;28;20206;-89
2022/01/07 01:44:59;;;;;;;25.05;23.13;;;;;;;;;;5017846;28;20193;-88
2022/01/07 01:47:27;;;;;;;25.80;23.42;;;;;;;;;;5017881;28;20621;-88
2022/01/07 01:49:54;;;;;;;25.88;23.48;;;;;;;;;;5018138;28;20213;-88
2022/01/07 01:52:21;;;;;;;24.95;23.25;;;;;;;;;;5018002;28;20219;-88
2022/01/07 01:54:49;;;;;;;25.92;23.83;;;;;;;;;;5017748;28;20197;-89
2022/01/07 01:57:17;;;;;;;24.55;22.65;;;;;;;;;;5017902;28;20190;-88
2022/01/07 01:59:45;;;;;;;27.63;25.08;;;;;;;;;;5017815;28;20205;-87
2022/01/07 02:02:12;;;;;;;24.90;22.95;;;;;;;;;;5017859;28;20203;-89
2022/01/07 02:04:40;;;;;;;25.77;23.73;;;;;;;;;;5017665;28;20206;-88
2022/01/07 02:07:08;;;;;;;24.40;22.60;;;;;;;;;;5017282;28;20223;-89
2022/01/07 02:09:36;;;;;;;24.23;22.45;;;;;;;;;;5017222;28;20209;-88
2022/01/07 02:12:04;;;;;;;25.20;22.98;;;;;;;;;;5017640;28;20190;-88
2022/01/07 02:14:34;;;;;;;25.88;22.70;;;;;;;;;;5017921;28;20628;-88
2022/01/07 02:17:05;;;;;;;25.25;23.00;;;;;;;;;;5017590;28;20251;-88
2022/01/07 02:19:34;;;;;;;23.83;22.13;;;;;;;;;;5017016;28;20221;-89
2022/01/07 02:22:02;;;;;;;25.00;22.77;;;;;;;;;;4999730;28;20198;-89
2022/01/07 02:24:29;;;;;;;24.35;22.55;;;;;;;;;;5017244;28;20675;-89
2022/01/07 02:26:57;;;;;;;24.48;22.48;;;;;;;;;;5017054;28;20240;-88
2022/01/07 02:29:26;;;;;;;24.55;22.65;;;;;;;;;;5016879;28;20231;-88
2022/01/07 02:31:54;;;;;;;23.98;22.27;;;;;;;;;;5017128;28;20191;-89
2022/01/07 02:34:22;;;;;;;25.42;23.10;;;;;;;;;;5017088;28;20201;-88
2022/01/07 02:36:51;;;;;;;24.15;22.25;;;;;;;;;;5016969;28;20192;-89
2022/01/07 02:39:18;;;;;;;23.50;21.90;;;;;;;;;;5016729;28;20545;-88
2022/01/07 02:41:45;;;;;;;24.55;22.42;;;;;;;;;;5017064;28;20196;-88
2022/01/07 02:44:13;;;;;;;25.30;23.13;;;;;;;;;;5016712;28;20203;-89
2022/01/07 02:46:41;;;;;;;23.55;21.48;;;;;;;;;;5016771;28;20214;-89
2022/01/07 02:49:09;;;;;;;23.33;21.58;;;;;;;;;;5016757;28;20198;-88
2022/01/07 02:51:36;;;;;;;24.33;22.02;;;;;;;;;;5016765;28;20230;-87
2022/01/07 02:54:06;;;;;;;24.90;22.73;;;;;;;;;;5016391;28;20296;-89
2022/01/07 02:56:33;;;;;;;23.65;21.50;;;;;;;;;;5016587;28;20196;-89
2022/01/07 02:59:01;;;;;;;23.48;21.50;;;;;;;;;;4999411;28;20672;-89
2022/01/07 03:01:28;;;;;;;24.98;22.52;;;;;;;;;;5016431;28;20239;-88
2022/01/07 03:03:56;;;;;;;24.80;22.55;;;;;;;;;;5016738;28;20214;-88
2022/01/07 03:06:23;;;;;;;23.85;22.23;;;;;;;;;;5016182;28;20236;-88
2022/01/07 03:08:51;;;;;;;23.27;21.52;;;;;;;;;;5016515;28;20198;-88
2022/01/07 03:11:20;;;;;;;23.50;21.75;;;;;;;;;;4998952;28;20216;-88
2022/01/07 03:13:48;;;;;;;23.00;21.50;;;;;;;;;;5016259;28;20198;-88
2022/01/07 03:16:16;;;;;;;24.83;22.80;;;;;;;;;;5015893;28;20563;-89
2022/01/07 03:18:43;;;;;;;23.58;21.65;;;;;;;;;;5016102;28;20199;-88
2022/01/07 03:21:10;;;;;;;25.10;22.73;;;;;;;;;;5016306;28;20191;-89
2022/01/07 03:23:40;;;;;;;24.23;22.17;;;;;;;;;;5016440;28;20203;-89
2022/01/07 03:26:08;;;;;;;24.10;22.05;;;;;;;;;;5016283;28;20821;-88
2022/01/07 03:28:37;;;;;;;23.88;22.05;;;;;;;;;;5015911;28;20232;-87
2022/01/07 03:31:04;;;;;;;23.55;21.95;;;;;;;;;;5015687;28;20215;-89
2022/01/07 03:33:32;;;;;;;24.90;22.95;;;;;;;;;;5015369;28;20203;-89
2022/01/07 03:35:59;;;;;;;25.05;22.90;;;;;;;;;;5016026;28;20195;-89
2022/01/07 03:38:27;;;;;;;22.83;21.13;;;;;;;;;;4998355;28;20252;-89
2022/01/07 03:40:54;;;;;;;23.60;22.02;;;;;;;;;;5015636;28;20194;-89
2022/01/07 03:43:22;;;;;;;23.88;21.98;;;;;;;;;;5015685;28;20694;-89
2022/01/07 03:45:50;;;;;;;24.40;22.48;;;;;;;;;;5015611;28;20223;-89
2022/01/07 03:48:18;;;;;;;24.27;22.10;;;;;;;;;;5015686;28;20194;-89
2022/01/07 03:50:45;;;;;;;23.15;21.55;;;;;;;;;;5014815;28;20198;-89
2022/01/07 03:53:13;;;;;;;22.70;21.10;;;;;;;;;;5015638;28;20205;-89
2022/01/07 03:55:40;;;;;;;24.00;22.25;;;;;;;;;;5015745;28;20699;-89
2022/01/07 03:58:08;;;;;;;23.77;21.95;;;;;;;;;;4998328;28;20201;-89
2022/01/07 04:00:37;;;;;;;24.60;22.73;;;;;;;;;;5015578;28;20609;-88
2022/01/07 04:03:07;;;;;;;24.73;22.83;;;;;;;;;;5015413;28;20189;-88
2022/01/07 04:05:34;;;;;;;24.27;22.23;;;;;;;;;;5015210;28;20203;-88
2022/01/07 04:08:02;;;;;;;24.40;22.42;;;;;;;;;;5015420;28;20191;-88
2022/01/07 04:10:29;;;;;;;24.02;22.33;;;;;;;;;;5015485;28;20192;-89
2022/01/07 04:12:56;;;;;;;23.10;21.48;;;;;;;;;;5015429;28;20560;-88
2022/01/07 04:15:24;;;;;;;23.90;22.15;;;;;;;;;;5015326;28;20217;-88
2022/01/07 04:17:52;;;;;;;24.40;22.48;;;;;;;;;;5015273;28;20218;-88
2022/01/07 04:20:22;;;;;;;23.85;22.15;;;;;;;;;;5015303;28;20226;-88
2022/01/07 04:22:50;;;;;;;25.23;22.83;;;;;;;;;;5014965;28;20212;-87
2022/01/07 04:25:18;;;;;;;24.30;22.60;;;;;;;;;;4997341;28;20713;-87
2022/01/07 04:27:46;;;;;;;23.17;21.50;;;;;;;;;;5014613;28;20238;-89
2022/01/07 04:30:14;;;;;;;23.73;21.67;;;;;;;;;;5014739;28;20284;-88
2022/01/07 04:32:42;;;;;;;23.55;21.95;;;;;;;;;;5014888;28;20199;-87
2022/01/07 04:35:10;;;;;;;21.75;20.30;;;;;;;;;;5014889;28;20201;-90
2022/01/07 04:37:39;;;;;;;23.65;21.85;;;;;;;;;;5015116;28;20200;-88
2022/01/07 04:40:08;;;;;;;23.23;21.52;;;;;;;;;;5014993;28;20292;-88
2022/01/07 04:42:36;;;;;;;25.58;23.27;;;;;;;;;;5014933;28;20201;-88
2022/01/07 04:45:03;;;;;;;23.42;21.58;;;;;;;;;;5014660;28;20205;-89
2022/01/07 04:47:31;;;;;;;21.00;19.50;;;;;;;;;;5014434;28;20226;-88
2022/01/07 04:49:59;;;;;;;23.30;21.50;;;;;;;;;;5014722;28;20196;-89
2022/01/07 04:52:26;;;;;;;24.23;21.98;;;;;;;;;;5014886;28;20228;-87
2022/01/07 04:54:55;;;;;;;23.40;21.58;;;;;;;;;;5014842;28;20221;-87
2022/01/07 04:57:22;;;;;;;25.75;23.50;;;;;;;;;;5014622;28;20194;-89
2022/01/07 04:59:50;;;;;;;23.35;21.52;;;;;;;;;;5014736;28;20199;-89
2022/01/07 05:02:19;;;;;;;24.40;22.45;;;;;;;;;;5014298;28;20202;-88
2022/01/07 05:04:46;;;;;;;22.73;20.90;;;;;;;;;;5014730;28;20202;-89
2022/01/07 05:07:14;;;;;;;24.15;21.73;;;;;;;;;;5014262;28;20226;-88
2022/01/07 05:09:41;;;;;;;24.63;22.63;;;;;;;;;;5014365;28;20207;-88
2022/01/07 05:12:10;;;;;;;23.20;21.42;;;;;;;;;;5014234;28;20195;-88
2022/01/07 05:14:38;;;;;;;22.90;21.23;;;;;;;;;;5014231;28;20594;-88
2022/01/07 05:17:05;;;;;;;23.55;21.63;;;;;;;;;;4997075;28;20201;-88
2022/01/07 05:19:33;;;;;;;21.80;20.20;;;;;;;;;;5014029;28;20230;-88
2022/01/07 05:22:00;;;;;;;23.40;21.55;;;;;;;;;;5014182;28;20214;-86
2022/01/07 05:24:28;;;;;;;23.73;21.80;;;;;;;;;;5014008;28;20197;-88
2022/01/07 05:26:55;;;;;;;25.70;22.58;;;;;;;;;;5013800;28;20210;-88
2022/01/07 05:29:25;;;;;;;22.63;20.70;;;;;;;;;;5013653;28;20230;-88
2022/01/07 05:31:53;;;;;;;22.63;21.13;;;;;;;;;;5014241;28;20222;-88
2022/01/07 05:34:20;;;;;;;23.40;21.40;;;;;;;;;;5014081;28;20211;-88
2022/01/07 05:36:47;;;;;;;24.38;22.33;;;;;;;;;;5013959;28;20554;-88
2022/01/07 05:39:15;;;;;;;23.95;22.15;;;;;;;;;;5013850;28;20187;-88
2022/01/07 05:41:42;;;;;;;24.02;22.00;;;;;;;;;;4996845;28;20197;-88
2022/01/07 05:44:09;;;;;;;24.13;22.20;;;;;;;;;;5014259;28;20197;-88
2022/01/07 05:46:38;;;;;;;23.48;21.52;;;;;;;;;;5013965;28;20226;-88
2022/01/07 05:49:05;;;;;;;23.70;21.90;;;;;;;;;;5013926;28;20636;-87
2022/01/07 05:51:33;;;;;;;23.95;22.33;;;;;;;;;;5014136;28;20198;-88
2022/01/07 05:54:05;;;;;;;24.10;22.40;;;;;;;;;;5013892;28;20195;-88
2022/01/07 05:56:32;;;;;;;24.08;22.10;;;;;;;;;;5014098;28;20614;-88
2022/01/07 05:59:00;;;;;;;24.33;21.85;;;;;;;;;;5014042;28;20205;-87
2022/01/07 06:01:27;;;;;;;25.77;23.50;;;;;;;;;;5014308;28;20207;-88
2022/01/07 06:03:56;;;;;;;24.98;22.55;;;;;;;;;;5014005;28;20194;-88
2022/01/07 06:06:23;;;;;;;24.02;21.92;;;;;;;;;;5013502;28;20364;-88
2022/01/07 06:08:51;;;;;;;25.80;23.73;;;;;;;;;;5013568;28;20202;-88
2022/01/07 06:11:18;;;;;;;24.15;22.45;;;;;;;;;;4996307;28;20255;-88
2022/01/07 06:13:46;;;;;;;24.02;22.17;;;;;;;;;;5015702;28;20300;-87
2022/01/07 06:16:13;;;;;;;25.00;22.92;;;;;;;;;;5017707;28;20207;-88
2022/01/07 06:18:50;;;;;;;24.73;22.38;;;;;;;;;;5000075;28;20214;-88
2022/01/07 06:21:19;;;;;;;24.63;22.75;;;;;;;;;;5017025;28;20262;-87
2022/01/07 06:23:46;;;;;;;24.40;22.73;;;;;;;;;;5017100;28;20225;-87
2022/01/07 06:26:14;;;;;;;25.85;23.50;;;;;;;;;;4999699;28;20264;-87
2022/01/07 06:28:41;;;;;;;30.30;23.52;;;;;;;;;;5016692;28;20242;-87
2022/01/07 06:31:09;;;;;;;25.13;22.63;;;;;;;;;;5016981;28;20197;-87
2022/01/07 06:33:36;;;;;;;25.08;22.90;;;;;;;;;;5017326;28;20522;-87
2022/01/07 06:36:03;;;;;;;23.35;21.67;;;;;;;;;;5016777;28;20198;-88
2022/01/07 06:38:32;;;;;;;24.70;22.90;;;;;;;;;;5017188;28;20593;-87
2022/01/07 06:41:00;;;;;;;25.10;23.13;;;;;;;;;;5017020;28;20194;-86
2022/01/07 06:43:27;;;;;;;24.33;22.63;;;;;;;;;;4999450;28;20202;-86
2022/01/07 06:45:54;;;;;;;25.77;23.48;;;;;;;;;;5016892;28;20297;-86
2022/01/07 06:48:22;;;;;;;26.45;24.17;;;;;;;;;;5016973;28;20574;-87
2022/01/07 06:50:49;;;;;;;26.58;24.30;;;;;;;;;;4999118;28;20248;-87
2022/01/07 06:53:17;;;;;;;26.33;23.80;;;;;;;;;;5016658;28;20190;-88
2022/01/07 06:55:46;;;;;;;26.90;24.80;;;;;;;;;;5016934;28;20198;-87
2022/01/07 06:58:13;;;;;;;27.55;25.38;;;;;;;;;;5016574;28;20641;-88
2022/01/07 07:00:40;;;;;;;26.42;24.50;;;;;;;;;;5016934;28;20196;-87
2022/01/07 07:03:08;;;;;;;28.00;25.20;;;;;;;;;;5016355;28;20191;-87
2022/01/07 07:05:35;;;;;;;26.70;24.40;;;;;;;;;;5016541;28;20207;-87
2022/01/07 07:08:02;;;;;;;28.02;25.55;;;;;;;;;;5016346;28;20378;-87
2022/01/07 07:10:30;;;;;;;26.55;24.48;;;;;;;;;;4998861;28;20201;-87
2022/01/07 07:12:59;;;;;;;28.83;26.27;;;;;;;;;;5016093;28;20201;-88
2022/01/07 07:15:26;;;;;;;27.90;25.63;;;;;;;;;;5016149;28;20198;-87
2022/01/07 07:17:53;;;;;;;27.33;24.55;;;;;;;;;;4999091;28;20195;-88
2022/01/07 07:20:21;;;;;;;25.23;23.42;;;;;;;;;;5016199;28;20226;-87
2022/01/07 07:22:48;;;;;;;28.00;25.65;;;;;;;;;;5015653;28;20203;-87
2022/01/07 07:25:15;;;;;;;26.65;24.20;;;;;;;;;;5015491;28;20206;-87
2022/01/07 07:27:44;;;;;;;26.08;24.05;;;;;;;;;;4998420;28;20230;-88
2022/01/07 07:30:13;;;;;;;27.40;25.20;;;;;;;;;;4999075;28;20242;-88
2022/01/07 07:32:40;;;;;;;26.08;23.92;;;;;;;;;;4998295;28;20249;-87
2022/01/07 07:37:55;;;;;;;25.17;23.38;;;;;;;;;;5014039;28;20211;-87
2022/01/07 07:40:23;;;;;;;24.33;22.70;;;;;;;;;;5016116;28;20201;-88
2022/01/07 07:42:51;;;;;;;25.58;23.50;;;;;;;;;;5015968;28;20211;-87
2022/01/07 07:45:19;;;;;;;24.48;22.42;;;;;;;;;;5015812;28;20594;-87
2022/01/07 07:47:47;;;;;;;24.17;22.42;;;;;;;;;;5015469;28;20238;-88
2022/01/07 07:50:14;;;;;;;24.15;22.08;;;;;;;;;;5015922;28;20209;-87
2022/01/07 07:52:42;;;;;;;23.52;21.83;;;;;;;;;;4982547;28;20206;-87
2022/01/07 07:55:09;;;;;;;23.48;21.63;;;;;;;;;;5015659;28;20195;-88
2022/01/07 07:57:37;;;;;;;23.80;22.00;;;;;;;;;;5015475;28;20191;-87
2022/01/07 08:00:04;;;;;;;25.10;23.00;;;;;;;;;;5015600;28;20215;-87
2022/01/07 08:02:34;;;;;;;23.23;21.73;;;;;;;;;;5015045;28;20199;-86
2022/01/07 08:05:02;;;;;;;24.05;22.25;;;;;;;;;;5015039;28;20217;-87
2022/01/07 08:07:29;;;;;;;23.42;21.92;;;;;;;;;;5015055;28;20231;-86
2022/01/07 08:09:56;;;;;;;24.48;22.85;;;;;;;;;;5015277;28;20199;-86
2022/01/07 08:12:29;;;;;;;25.08;22.75;;;;;;;;;;5014845;28;20664;-86
2022/01/07 08:17:42;;;;;;;23.17;21.58;;;;;;;;;;5014721;28;20190;-85
2022/01/07 08:20:10;;;;;;;23.42;21.77;;;;;;;;;;5014263;28;20721;-85
2022/01/07 08:22:37;;;;;;;23.67;22.00;;;;;;;;;;5014324;28;20190;-85
2022/01/07 08:25:05;;;;;;;23.73;22.23;;;;;;;;;;5014061;28;20676;-85
2022/01/07 08:27:32;;;;;;;23.45;21.98;;;;;;;;;;5014169;28;20288;-84
2022/01/07 08:30:09;;;;;;;23.10;21.40;;;;;;;;;;5013806;28;20238;-84
2022/01/07 08:35:23;;;;;;;22.98;21.27;;;;;;;;;;5013672;28;20202;-85
2022/01/07 08:37:50;;;;;;;24.67;22.88;;;;;;;;;;5014516;28;20274;-85
2022/01/07 08:40:17;;;;;;;22.42;20.92;;;;;;;;;;5013921;28;21040;-86
2022/01/07 08:42:45;;;;;;;24.50;21.80;;;;;;;;;;5014309;28;20220;-85
2022/01/07 08:45:12;;;;;;;23.20;21.73;;;;;;;;;;5013997;28;20191;-84
2022/01/07 08:47:40;;;;;;;22.77;21.30;;;;;;;;;;5013916;28;20216;-84
2022/01/07 08:50:07;;;;;;;22.58;20.95;;;;;;;;;;5014071;28;20267;-85
2022/01/07 08:52:36;;;;;;;24.30;22.77;;;;;;;;;;5014127;28;20233;-86
2022/01/07 08:55:04;;;;;;;23.08;21.25;;;;;;;;;;5014404;28;20240;-86
2022/01/07 08:57:31;;;;;;;20.70;19.48;;;;;;;;;;5014039;28;20194;-86
2022/01/07 08:59:58;;;;;;;22.05;20.58;;;;;;;;;;5014111;28;20193;-86
2022/01/07 09:02:26;;;;;;;22.65;21.17;;;;;;;;;;4996705;28;20198;-85
2022/01/07 09:04:54;;;;;;;22.60;20.95;;;;;;;;;;5013811;28;20204;-85
2022/01/07 09:07:21;;;;;;;22.77;21.40;;;;;;;;;;5014176;28;20194;-86
2022/01/07 09:09:50;;;;;;;21.75;20.38;;;;;;;;;;5014067;28;20199;-87
2022/01/07 09:12:17;;;;;;;22.90;21.50;;;;;;;;;;5013776;28;20646;-86
2022/01/07 09:14:46;;;;;;;24.42;22.83;;;;;;;;;;5013291;28;20261;-86
2022/01/07 09:17:13;;;;;;;22.38;20.98;;;;;;;;;;5013883;28;20557;-87
2022/01/07 09:19:40;;;;;;;22.42;20.95;;;;;;;;;;5013521;28;20227;-87
2022/01/07 09:22:08;;;;;;;23.52;21.98;;;;;;;;;;4996418;28;20212;-86
2022/01/07 09:24:35;;;;;;;22.83;21.35;;;;;;;;;;5014051;28;20257;-87
2022/01/07 09:27:04;;;;;;;22.75;21.35;;;;;;;;;;5013986;28;20210;-85
2022/01/07 09:29:32;;;;;;;22.45;21.10;;;;;;;;;;5013399;28;20253;-87
2022/01/07 09:31:59;;;;;;;22.77;21.38;;;;;;;;;;5014024;28;20229;-87
2022/01/07 09:34:26;;;;;;;21.20;20.00;;;;;;;;;;5013437;28;20199;-86
2022/01/07 09:36:54;;;;;;;23.10;21.48;;;;;;;;;;5013652;28;20236;-86
2022/01/07 09:39:21;;;;;;;23.65;21.95;;;;;;;;;;5013998;28;20199;-86
2022/01/07 09:41:48;;;;;;;22.00;20.65;;;;;;;;;;5013771;28;20661;-87
2022/01/07 09:44:17;;;;;;;22.48;21.08;;;;;;;;;;5013972;28;20201;-85
2022/01/07 09:46:45;;;;;;;23.30;21.80;;;;;;;;;;5013570;28;20187;-87
2022/01/07 09:49:12;;;;;;;23.13;21.70;;;;;;;;;;5016889;28;20666;-87
2022/01/07 09:51:40;;;;;;;24.30;22.38;;;;;;;;;;5017654;28;20191;-86
2022/01/07 09:54:08;;;;;;;22.63;21.23;;;;;;;;;;5017951;28;20195;-87
2022/01/07 09:56:35;;;;;;;23.65;21.88;;;;;;;;;;5017814;28;20852;-86
2022/01/07 09:59:05;;;;;;;22.80;21.50;;;;;;;;;;5017392;28;20639;-87
2022/01/07 10:01:53;;;;;;;24.60;23.10;;;;;;;;;;5017479;28;20206;-86
2022/01/07 10:04:26;;;;;;;22.60;21.25;;;;;;;;;;5017301;28;20198;-87
2022/01/07 10:07:09;;;;;;;24.40;22.90;;;;;;;;;;5017534;28;20261;-86
2022/01/07 10:09:37;;;;;;;24.63;23.13;;;;;;;;;;5016942;28;20323;-86
2022/01/07 10:12:04;;;;;;;21.30;19.90;;;;;;;;;;5017428;28;20637;-87
2022/01/07 10:14:32;;;;;;;20.98;19.67;;;;;;;;;;5017544;28;20231;-86
2022/01/07 10:17:02;;;;;;;23.90;22.40;;;;;;;;;;5017251;28;20190;-87
2022/01/07 10:19:30;;;;;;;24.27;22.52;;;;;;;;;;5017411;28;20582;-87
2022/01/07 10:21:58;;;;;;;23.60;22.10;;;;;;;;;;5017359;28;20191;-87
2022/01/07 10:24:25;;;;;;;24.67;23.08;;;;;;;;;;5017053;28;20211;-82
2022/01/07 10:27:15;;;;;;;24.17;22.63;;;;;;;;;;5015739;28;20195;-86
2022/01/07 10:29:43;;;;;;;23.83;22.17;;;;;;;;;;5016748;28;20247;-85
2022/01/07 10:32:23;;;;;;;23.02;21.63;;;;;;;;;;5016976;28;20593;-86
2022/01/07 10:35:08;;;;;;;23.35;21.85;;;;;;;;;;5016412;28;20450;-85
2022/01/07 10:37:35;;;;;;;24.35;22.75;;;;;;;;;;5017188;28;20191;-95
2022/01/07 10:40:13;;;;;;;23.48;21.88;;;;;;;;;;5000991;28;20628;-88
2022/01/07 10:42:40;;;;;;;25.00;23.17;;;;;;;;;;4997502;28;20206;-87
2022/01/07 10:45:08;;;;;;;23.60;22.10;;;;;;;;;;4997513;28;20199;-89
2022/01/07 10:47:37;;;;;;;24.75;22.85;;;;;;;;;;4997594;28;20246;-89
2022/01/07 10:50:17;;;;;;;24.17;22.58;;;;;;;;;;4997423;28;20191;-88
2022/01/07 10:52:44;;;;;;;23.55;21.85;;;;;;;;;;4997173;28;20192;-89
2022/01/07 10:55:12;;;;;;;23.52;22.02;;;;;;;;;;4996864;28;20246;-89
2022/01/07 10:57:41;;;;;;;23.42;21.98;;;;;;;;;;4997114;28;20195;-89
2022/01/07 11:00:10;;;;;;;22.38;21.08;;;;;;;;;;4996509;28;20200;-89
2022/01/07 11:02:39;;;;;;;22.77;21.38;;;;;;;;;;4996881;28;20197;-89
2022/01/07 11:05:07;;;;;;;23.60;21.88;;;;;;;;;;4979679;28;20233;-88
2022/01/07 11:07:35;;;;;;;24.58;22.98;;;;;;;;;;4996596;28;20670;-88
2022/01/07 11:10:03;;;;;;;24.33;22.73;;;;;;;;;;4996550;28;20659;-88
2022/01/07 11:12:31;;;;;;;24.75;23.08;;;;;;;;;;4996334;28;20214;-89
2022/01/07 11:14:59;;;;;;;24.10;22.30;;;;;;;;;;4996707;28;20222;-87
2022/01/07 11:17:27;;;;;;;23.60;21.90;;;;;;;;;;4997993;28;20202;-87
2022/01/07 11:19:57;;;;;;;25.15;23.20;;;;;;;;;;4996395;28;20575;-86
2022/01/07 11:22:25;;;;;;;21.55;20.45;;;;;;;;;;4996291;28;20691;-87
2022/01/07 11:24:55;;;;;;;24.55;22.95;;;;;;;;;;4996223;28;20227;-88
2022/01/07 11:27:23;;;;;;;25.63;23.65;;;;;;;;;;4996396;28;20547;-86
2022/01/07 11:29:56;;;;;;;24.88;23.27;;;;;;;;;;4996111;28;20254;-87
2022/01/07 11:32:28;;;;;;;24.90;23.40;;;;;;;;;;4978621;28;20203;-85
2022/01/07 11:34:57;;;;;;;25.20;23.50;;;;;;;;;;4995968;28;20199;-90
2022/01/07 11:37:34;;;;;;;26.08;24.10;;;;;;;;;;4995828;28;20547;-89
2022/01/07 11:40:01;;;;;;;23.90;22.30;;;;;;;;;;4995133;28;20207;-83
2022/01/07 11:42:39;;;;;;;24.02;22.50;;;;;;;;;;4995188;28;20191;-89
2022/01/07 11:45:23;;;;;;;24.45;22.65;;;;;;;;;;4996143;28;20262;-92
2022/01/07 11:47:50;;;;;;;24.88;23.17;;;;;;;;;;4980768;28;20210;-86
2022/01/07 11:50:19;;;;;;;25.17;23.23;;;;;;;;;;4995934;28;20224;-94
2022/01/07 11:52:56;;;;;;;24.88;23.17;;;;;;;;;;4996346;28;20624;-85
2022/01/07 11:55:26;;;;;;;24.95;23.45;;;;;;;;;;4995082;28;20196;-85
2022/01/07 11:57:55;;;;;;;24.20;22.65;;;;;;;;;;4995052;28;20246;-85
2022/01/07 12:00:41;;;;;;;25.20;23.60;;;;;;;;;;4995014;28;20638;-81
2022/01/07 12:03:08;;;;;;;22.15;20.73;;;;;;;;;;4995436;28;20191;-93
2022/01/07 12:05:37;;;;;;;26.55;24.27;;;;;;;;;;4995270;28;20650;-86
2022/01/07 12:08:05;;;;;;;26.38;24.38;;;;;;;;;;4995297;28;20638;-85
2022/01/07 12:10:32;;;;;;;26.13;24.33;;;;;;;;;;4994437;28;20196;-86
2022/01/07 12:13:00;;;;;;;25.65;23.80;;;;;;;;;;4995320;28;20212;-86
2022/01/07 12:15:28;;;;;;;25.48;23.73;;;;;;;;;;4978316;28;20601;-86
2022/01/07 12:17:55;;;;;;;25.75;24.05;;;;;;;;;;4995028;28;20202;-85
2022/01/07 12:20:50;;;;;;;26.58;24.45;;;;;;;;;;4995119;28;20649;-86
2022/01/07 12:23:22;;;;;;;25.55;23.65;;;;;;;;;;4916557;29;20683;-86
2022/01/07 12:25:50;;;;;;;25.13;23.52;;;;;;;;;;4915974;29;20767;-83
2022/01/07 12:28:18;;;;;;;24.70;23.10;;;;;;;;;;4915417;29;20193;-82
2022/01/07 12:30:46;;;;;;;24.65;22.95;;;;;;;;;;4915845;29;20206;-82
2022/01/07 12:33:14;;;;;;;25.45;23.63;;;;;;;;;;4915988;29;20211;-83
2022/01/07 12:35:42;;;;;;;24.63;23.10;;;;;;;;;;4915595;29;20683;-83
2022/01/07 12:38:16;;;;;;;25.63;23.85;;;;;;;;;;4915937;29;20198;-83
2022/01/07 12:40:52;;;;;;;26.02;24.13;;;;;;;;;;4916175;29;20617;-84
2022/01/07 12:43:21;;;;;;;26.02;24.42;;;;;;;;;;4915837;29;20202;-83
2022/01/07 12:45:55;;;;;;;25.08;23.38;;;;;;;;;;4900007;29;20346;-83
2022/01/07 12:48:31;;;;;;;25.52;23.40;;;;;;;;;;4915550;29;20679;-83
2022/01/07 12:51:01;;;;;;;25.45;23.50;;;;;;;;;;4915904;29;20206;-83
2022/01/07 12:53:28;;;;;;;24.45;22.90;;;;;;;;;;4915708;29;20565;-83
2022/01/07 12:55:57;;;;;;;24.92;23.00;;;;;;;;;;4916028;29;20217;-83
2022/01/07 12:58:28;;;;;;;24.52;22.67;;;;;;;;;;4933400;28;20566;-83
2022/01/07 13:00:56;;;;;;;24.63;22.98;;;;;;;;;;4994186;28;20222;-82
2022/01/07 13:03:26;;;;;;;23.30;21.90;;;;;;;;;;4993986;28;20193;-82
2022/01/07 13:05:54;;;;;;;24.90;23.20;;;;;;;;;;4994141;28;20655;-82
2022/01/07 13:08:21;;;;;;;24.58;22.88;;;;;;;;;;4993892;28;20208;-83
2022/01/07 13:10:50;;;;;;;24.67;23.17;;;;;;;;;;4976667;28;20567;-83
2022/01/07 13:13:24;;;;;;;22.75;21.05;;;;;;;;;;4994256;28;20192;-82
2022/01/07 13:15:53;;;;;;;24.42;22.70;;;;;;;;;;4994137;28;20191;-83
2022/01/07 13:18:22;;;;;;;24.42;22.95;;;;;;;;;;4994353;28;20286;-82
2022/01/07 13:20:50;;;;;;;22.70;21.20;;;;;;;;;;4994009;28;20262;-82
2022/01/07 13:23:18;;;;;;;23.40;22.10;;;;;;;;;;4993621;28;20215;-83
2022/01/07 13:25:46;;;;;;;24.17;22.45;;;;;;;;;;4994211;28;20684;-82
2022/01/07 13:28:14;;;;;;;24.20;22.80;;;;;;;;;;4994056;28;20532;-82
2022/01/07 13:30:45;;;;;;;26.55;24.73;;;;;;;;;;4976479;28;20230;-83
2022/01/07 13:33:14;;;;;;;23.73;22.33;;;;;;;;;;4994212;28;20229;-83
2022/01/07 13:35:41;;;;;;;24.10;22.63;;;;;;;;;;4993936;28;20270;-83
2022/01/07 13:38:14;;;;;;;23.23;21.77;;;;;;;;;;4976813;28;20197;-84
2022/01/07 13:40:41;;;;;;;25.58;23.73;;;;;;;;;;4993895;28;20198;-85
2022/01/07 13:43:13;;;;;;;21.80;20.50;;;;;;;;;;4993924;28;20254;-85
2022/01/07 13:45:41;;;;;;;21.02;19.83;;;;;;;;;;4993662;28;20246;-85
2022/01/07 13:48:11;;;;;;;22.90;21.15;;;;;;;;;;4976175;28;20209;-85
2022/01/07 13:50:40;;;;;;;23.67;22.08;;;;;;;;;;4993427;28;20278;-85
2022/01/07 13:53:12;;;;;;;24.50;22.65;;;;;;;;;;4993630;28;20210;-85
2022/01/07 13:55:40;;;;;;;24.00;22.40;;;;;;;;;;4993840;28;20204;-85
2022/01/07 13:58:08;;;;;;;23.73;22.08;;;;;;;;;;4993600;28;20224;-85
2022/01/07 14:00:35;;;;;;;23.55;22.15;;;;;;;;;;4993808;28;20200;-85
2022/01/07 14:03:04;;;;;;;22.63;21.20;;;;;;;;;;4993886;28;20609;-86
2022/01/07 14:05:34;;;;;;;24.02;22.13;;;;;;;;;;4993466;28;20287;-84
2022/01/07 14:08:06;;;;;;;21.48;20.27;;;;;;;;;;4993548;28;20203;-85
2022/01/07 14:10:35;;;;;;;23.30;21.55;;;;;;;;;;4993210;28;20217;-87
2022/01/07 14:13:05;;;;;;;23.02;21.52;;;;;;;;;;4993639;28;20665;-85
2022/01/07 14:15:34;;;;;;;23.73;22.15;;;;;;;;;;4993896;28;20203;-90
2022/01/07 14:18:05;;;;;;;23.77;21.98;;;;;;;;;;4993498;28;20228;-92
2022/01/07 14:20:41;;;;;;;25.70;23.80;;;;;;;;;;4996482;28;20613;-89
2022/01/07 14:23:08;;;;;;;24.25;22.25;;;;;;;;;;4994670;28;20199;-89
2022/01/07 14:25:36;;;;;;;23.35;22.05;;;;;;;;;;4976682;28;20208;-88
2022/01/07 14:28:03;;;;;;;25.35;23.60;;;;;;;;;;4994074;28;20785;-88
2022/01/07 14:30:30;;;;;;;23.95;22.33;;;;;;;;;;4994127;28;20226;-89
2022/01/07 14:32:58;;;;;;;24.30;22.52;;;;;;;;;;4993995;28;20188;-89